Time;durP1;ratioP1;P1;durP2;ratioP2;P2;SDS_P1;SDS_P2;PMS_P1;PMS_P2;Temp;Humidity;BMP_temperature;BMP_pressure;BME280_temperature;BME280_humidity;BME280_pressure;Samples;Min_cycle;Max_cycle;Signal;HPM_P1;HPM_P2
2022/03/05 00:00:46;;;;;;;21.38;14.55;;;4.80;99.90;;;;;;5016010;28;20599;-60
2022/03/05 00:03:13;;;;;;;18.92;14.45;;;4.70;99.90;;;;;;5015763;28;20175;-60
2022/03/05 00:05:39;;;;;;;20.38;14.07;;;4.60;99.90;;;;;;5014621;28;20219;-60
2022/03/05 00:08:05;;;;;;;19.92;15.15;;;4.60;99.90;;;;;;5016048;28;20648;-60
2022/03/05 00:10:31;;;;;;;21.95;13.90;;;4.60;99.90;;;;;;5015646;28;20557;-61
2022/03/05 00:12:57;;;;;;;20.40;14.25;;;4.50;99.90;;;;;;5015722;28;20179;-60
2022/03/05 00:15:25;;;;;;;24.95;15.05;;;4.60;99.90;;;;;;5014815;28;20187;-61
2022/03/05 00:17:52;;;;;;;21.07;15.13;;;4.50;99.90;;;;;;5015451;28;20204;-60
2022/03/05 00:20:21;;;;;;;20.67;14.23;;;4.40;99.90;;;;;;5015893;28;20180;-61
2022/03/05 00:22:47;;;;;;;18.50;13.95;;;4.40;99.90;;;;;;5014594;28;20243;-61
2022/03/05 00:25:13;;;;;;;18.30;13.87;;;4.30;99.90;;;;;;5015270;28;20219;-61
2022/03/05 00:27:40;;;;;;;20.30;14.25;;;4.40;99.90;;;;;;5014208;28;20592;-60
2022/03/05 00:30:06;;;;;;;20.60;15.00;;;4.40;99.90;;;;;;5015280;28;20590;-60
2022/03/05 00:32:32;;;;;;;21.25;14.13;;;4.30;99.90;;;;;;5013944;28;20188;-60
2022/03/05 00:34:58;;;;;;;19.90;15.45;;;4.20;99.90;;;;;;5014188;28;20233;-60
2022/03/05 00:37:24;;;;;;;19.02;14.30;;;4.20;99.90;;;;;;5015108;28;20628;-60
2022/03/05 00:39:50;;;;;;;19.55;14.50;;;4.20;99.90;;;;;;5015161;28;20179;-60
2022/03/05 00:42:16;;;;;;;22.63;14.77;;;4.30;99.90;;;;;;5015125;28;20536;-60
2022/03/05 00:44:42;;;;;;;20.70;14.52;;;4.20;99.90;;;;;;5015006;28;20537;-60
2022/03/05 00:47:07;;;;;;;21.42;15.10;;;4.20;99.90;;;;;;5014927;28;20202;-61
2022/03/05 00:49:33;;;;;;;21.23;15.32;;;4.20;99.90;;;;;;5015149;28;20215;-60
2022/03/05 00:51:59;;;;;;;19.08;14.07;;;4.10;99.90;;;;;;5014899;28;20506;-60
2022/03/05 00:54:24;;;;;;;22.50;15.63;;;3.90;99.90;;;;;;5014837;28;20202;-60
2022/03/05 00:56:50;;;;;;;24.92;16.40;;;4.00;99.90;;;;;;5014905;28;20601;-60
2022/03/05 00:59:16;;;;;;;22.60;16.53;;;3.90;99.90;;;;;;5014808;28;20186;-60
2022/03/05 01:01:41;;;;;;;21.40;15.50;;;3.70;99.90;;;;;;5013488;28;20183;-60
2022/03/05 01:04:07;;;;;;;20.40;15.70;;;3.60;99.90;;;;;;5014982;28;20180;-60
2022/03/05 01:06:33;;;;;;;23.20;15.60;;;3.60;99.90;;;;;;5014530;28;20306;-60
2022/03/05 01:09:03;;;;;;;21.43;15.77;;;3.70;99.90;;;;;;5014577;28;20234;-60
2022/03/05 01:11:29;;;;;;;23.77;15.83;;;3.70;99.90;;;;;;5014662;28;20270;-61
2022/03/05 01:13:55;;;;;;;20.60;15.20;;;3.50;99.90;;;;;;5014476;28;20267;-61
2022/03/05 01:16:20;;;;;;;22.40;15.80;;;3.50;99.90;;;;;;5014306;28;20191;-60
2022/03/05 01:18:46;;;;;;;21.57;16.10;;;3.50;99.90;;;;;;5014415;28;20181;-60
2022/03/05 01:21:12;;;;;;;25.93;17.03;;;3.40;99.90;;;;;;5014513;28;20185;-60
2022/03/05 01:23:38;;;;;;;19.73;14.77;;;3.30;99.90;;;;;;5014350;28;20202;-60
2022/03/05 01:26:04;;;;;;;24.10;16.17;;;3.40;99.90;;;;;;5014280;28;20214;-60
2022/03/05 01:28:29;;;;;;;21.53;15.03;;;3.40;99.90;;;;;;5014206;28;20172;-60
2022/03/05 01:30:55;;;;;;;21.37;15.10;;;3.40;99.90;;;;;;5014200;28;20180;-61
2022/03/05 01:33:21;;;;;;;21.10;15.10;;;3.40;99.90;;;;;;5014366;28;20180;-61
2022/03/05 01:35:48;;;;;;;20.93;14.20;;;3.40;99.90;;;;;;5014514;28;20269;-60
2022/03/05 01:38:15;;;;;;;24.93;16.67;;;3.40;99.90;;;;;;5013728;28;20179;-60
2022/03/05 01:40:41;;;;;;;25.13;16.50;;;3.30;99.90;;;;;;5014416;28;20188;-61
2022/03/05 01:43:07;;;;;;;23.23;15.93;;;3.30;99.90;;;;;;5014016;28;20196;-61
2022/03/05 01:45:33;;;;;;;24.80;16.27;;;3.20;99.90;;;;;;5013837;28;20211;-60
2022/03/05 01:48:00;;;;;;;25.23;16.80;;;3.20;99.90;;;;;;5013082;28;20192;-60
2022/03/05 01:50:26;;;;;;;23.77;15.90;;;3.20;99.90;;;;;;5014032;28;20200;-61
2022/03/05 01:52:53;;;;;;;22.60;15.57;;;3.20;99.90;;;;;;5014012;28;20176;-60
2022/03/05 01:55:19;;;;;;;24.33;16.10;;;3.20;99.90;;;;;;5013918;28;20179;-60
2022/03/05 01:57:44;;;;;;;22.40;15.37;;;3.10;99.90;;;;;;5013730;28;20229;-61
2022/03/05 02:00:13;;;;;;;18.80;14.63;;;3.10;99.90;;;;;;5013729;28;20190;-61
2022/03/05 02:02:39;;;;;;;22.13;14.90;;;3.10;99.90;;;;;;5013931;28;20530;-60
2022/03/05 02:05:05;;;;;;;21.10;15.63;;;3.10;99.90;;;;;;5013767;28;20208;-60
2022/03/05 02:07:32;;;;;;;22.63;15.67;;;3.00;99.90;;;;;;5013589;28;20516;-60
2022/03/05 02:09:58;;;;;;;21.77;15.70;;;3.00;99.90;;;;;;5013846;28;20199;-60
2022/03/05 02:12:27;;;;;;;20.23;14.90;;;3.00;99.90;;;;;;5013590;28;20533;-61
2022/03/05 02:14:53;;;;;;;21.63;14.90;;;3.00;99.90;;;;;;5013792;28;20180;-60
2022/03/05 02:17:19;;;;;;;21.27;15.23;;;3.00;99.90;;;;;;5013520;28;20173;-61
2022/03/05 02:19:44;;;;;;;21.40;15.57;;;3.00;99.90;;;;;;5013581;28;20180;-60
2022/03/05 02:22:10;;;;;;;22.70;15.17;;;2.90;99.90;;;;;;5013557;28;20537;-60
2022/03/05 02:24:38;;;;;;;20.20;14.27;;;3.00;99.90;;;;;;5013433;28;20267;-60
2022/03/05 02:27:05;;;;;;;20.83;14.33;;;2.90;99.90;;;;;;5013412;28;20211;-60
2022/03/05 02:29:31;;;;;;;19.70;14.40;;;2.90;99.90;;;;;;5013614;28;20226;-60
2022/03/05 02:31:57;;;;;;;21.43;14.40;;;2.80;99.90;;;;;;5013454;28;20186;-60
2022/03/05 02:34:23;;;;;;;20.60;14.53;;;2.90;99.90;;;;;;5012235;28;20191;-60
2022/03/05 02:36:49;;;;;;;20.70;14.13;;;2.80;99.90;;;;;;5013344;28;20218;-60
2022/03/05 02:39:15;;;;;;;20.33;14.70;;;2.80;99.90;;;;;;5013440;28;20184;-60
2022/03/05 02:41:40;;;;;;;19.83;13.60;;;2.70;99.90;;;;;;5013530;28;20534;-60
2022/03/05 02:44:06;;;;;;;22.40;14.70;;;2.70;99.90;;;;;;5013432;28;20210;-60
2022/03/05 02:46:34;;;;;;;21.87;14.70;;;2.60;99.90;;;;;;5013121;28;20622;-60
2022/03/05 02:49:00;;;;;;;21.27;14.33;;;2.60;99.90;;;;;;5016084;28;20227;-61
2022/03/05 02:51:26;;;;;;;21.17;14.47;;;2.60;99.90;;;;;;5017319;28;20180;-60
2022/03/05 02:53:52;;;;;;;22.00;15.30;;;2.60;99.90;;;;;;5015796;28;20191;-60
2022/03/05 02:56:18;;;;;;;22.60;14.53;;;2.50;99.90;;;;;;5017044;28;20323;-60
2022/03/05 02:58:44;;;;;;;20.33;14.10;;;2.40;99.90;;;;;;5015834;28;20184;-60
2022/03/05 03:01:09;;;;;;;21.80;14.17;;;2.40;99.90;;;;;;5017138;28;20173;-61
2022/03/05 03:03:35;;;;;;;19.57;13.40;;;2.30;99.90;;;;;;5017026;28;20180;-61
2022/03/05 03:06:01;;;;;;;19.77;13.93;;;2.30;99.90;;;;;;5016858;28;20609;-60
2022/03/05 03:08:26;;;;;;;23.53;14.47;;;2.30;99.90;;;;;;5016724;28;20576;-61
2022/03/05 03:10:52;;;;;;;19.90;13.93;;;2.30;99.90;;;;;;5015778;28;20211;-61
2022/03/05 03:13:18;;;;;;;21.07;13.93;;;2.30;99.90;;;;;;5016089;28;20670;-60
2022/03/05 03:15:44;;;;;;;22.90;14.57;;;2.30;99.90;;;;;;5015667;28;20185;-60
2022/03/05 03:18:09;;;;;;;23.67;14.90;;;2.30;99.90;;;;;;5015664;28;20527;-60
2022/03/05 03:20:35;;;;;;;21.23;13.50;;;2.40;99.90;;;;;;5016727;28;20177;-60
2022/03/05 03:23:01;;;;;;;20.30;14.13;;;2.40;99.90;;;;;;5015376;28;20184;-60
2022/03/05 03:25:28;;;;;;;22.13;13.77;;;2.40;99.90;;;;;;5016289;28;20307;-60
2022/03/05 03:27:53;;;;;;;20.17;13.80;;;2.50;99.90;;;;;;5016722;28;20205;-61
2022/03/05 03:30:20;;;;;;;20.17;13.30;;;2.40;99.90;;;;;;5016883;28;20258;-60
2022/03/05 03:32:46;;;;;;;18.93;12.97;;;2.40;99.90;;;;;;5016582;28;20177;-60
2022/03/05 03:35:13;;;;;;;19.27;12.93;;;2.40;99.90;;;;;;5015173;28;20183;-60
2022/03/05 03:37:41;;;;;;;20.53;13.13;;;2.30;99.90;;;;;;5016273;28;20172;-61
2022/03/05 03:40:09;;;;;;;20.47;13.33;;;2.40;99.90;;;;;;5016196;28;20203;-60
2022/03/05 03:42:35;;;;;;;21.70;13.03;;;2.20;99.90;;;;;;5016149;28;20189;-60
2022/03/05 03:45:01;;;;;;;17.93;12.97;;;2.20;99.90;;;;;;5016237;28;20235;-60
2022/03/05 03:47:26;;;;;;;18.60;12.50;;;2.10;99.90;;;;;;5016228;28;20177;-60
2022/03/05 03:49:52;;;;;;;19.10;13.10;;;2.20;99.90;;;;;;5016138;28;20251;-60
2022/03/05 03:52:18;;;;;;;21.83;13.83;;;2.10;99.90;;;;;;5016016;28;20204;-60
2022/03/05 03:54:45;;;;;;;20.17;13.40;;;2.00;99.90;;;;;;5014689;28;20258;-60
2022/03/05 03:57:11;;;;;;;19.47;12.97;;;2.00;99.90;;;;;;5016176;28;20644;-61
2022/03/05 03:59:37;;;;;;;19.17;12.77;;;2.00;99.90;;;;;;5015416;28;20230;-60
2022/03/05 04:02:03;;;;;;;19.50;13.73;;;2.00;99.90;;;;;;5014711;28;20287;-60
2022/03/05 04:04:30;;;;;;;20.17;13.33;;;1.90;99.90;;;;;;5015995;28;20713;-60
2022/03/05 04:09:40;;;;;;;19.70;13.27;;;1.80;99.90;;;;;;5015888;28;20565;-60
2022/03/05 04:12:06;;;;;;;18.97;12.40;;;1.80;99.90;;;;;;5014687;28;20266;-61
2022/03/05 04:14:32;;;;;;;20.07;12.77;;;1.90;99.90;;;;;;5015719;28;20204;-61
2022/03/05 04:16:57;;;;;;;19.77;13.47;;;1.70;99.90;;;;;;5015565;28;20195;-60
2022/03/05 04:19:23;;;;;;;21.63;13.57;;;1.70;99.90;;;;;;5014358;28;20216;-61
2022/03/05 04:21:49;;;;;;;21.53;13.47;;;1.70;99.90;;;;;;5015468;28;20701;-60
2022/03/05 04:24:14;;;;;;;19.43;13.63;;;1.80;99.90;;;;;;5015661;28;20538;-60
2022/03/05 04:26:40;;;;;;;22.83;13.83;;;1.80;99.90;;;;;;5014236;28;20222;-60
2022/03/05 04:29:07;;;;;;;20.23;13.70;;;1.80;99.90;;;;;;5015448;28;20180;-60
2022/03/05 04:31:32;;;;;;;20.80;12.90;;;1.80;99.90;;;;;;5015552;28;20531;-60
2022/03/05 04:33:58;;;;;;;21.47;13.93;;;1.80;99.90;;;;;;5015261;28;20180;-60
2022/03/05 04:36:24;;;;;;;20.73;13.63;;;1.70;99.90;;;;;;5015188;28;20188;-60
2022/03/05 04:38:50;;;;;;;20.80;13.70;;;1.70;99.90;;;;;;5015303;28;20177;-60
2022/03/05 04:41:16;;;;;;;22.60;14.60;;;1.80;99.90;;;;;;5015153;28;20260;-60
2022/03/05 04:43:41;;;;;;;20.90;13.80;;;1.90;99.90;;;;;;5015228;28;20262;-60
2022/03/05 04:46:07;;;;;;;20.53;13.63;;;1.80;99.90;;;;;;5015023;28;20205;-61
2022/03/05 04:48:32;;;;;;;24.03;14.53;;;1.70;99.90;;;;;;5015204;28;20188;-60
2022/03/05 04:50:58;;;;;;;22.60;13.97;;;1.70;99.90;;;;;;5014055;28;20187;-60
2022/03/05 04:53:24;;;;;;;20.77;13.67;;;1.70;99.90;;;;;;5015051;28;20186;-62
2022/03/05 04:55:50;;;;;;;22.20;14.40;;;1.70;99.90;;;;;;5015026;28;20584;-60
2022/03/05 04:58:16;;;;;;;22.37;14.47;;;1.60;99.90;;;;;;5014827;28;20630;-60
2022/03/05 05:00:42;;;;;;;20.87;14.23;;;1.60;99.90;;;;;;5013644;28;20545;-61
2022/03/05 05:03:08;;;;;;;24.50;15.43;;;1.50;99.90;;;;;;5013469;28;20191;-61
2022/03/05 05:05:34;;;;;;;20.23;14.40;;;1.60;99.90;;;;;;5014572;28;20234;-60
2022/03/05 05:07:59;;;;;;;20.37;13.77;;;1.50;99.90;;;;;;5014810;28;20191;-60
2022/03/05 05:10:25;;;;;;;22.40;14.57;;;1.50;99.90;;;;;;5014832;28;20195;-60
2022/03/05 05:12:51;;;;;;;24.30;15.43;;;1.40;99.90;;;;;;5013732;28;20181;-60
2022/03/05 05:15:17;;;;;;;20.17;14.03;;;1.40;99.90;;;;;;5014591;28;20664;-60
2022/03/05 05:17:43;;;;;;;19.47;14.07;;;1.30;99.90;;;;;;5014530;28;20176;-60
2022/03/05 05:20:10;;;;;;;21.03;13.93;;;1.20;99.90;;;;;;5014612;28;20561;-60
2022/03/05 05:22:35;;;;;;;21.17;14.57;;;1.20;99.90;;;;;;5014285;28;20327;-60
2022/03/05 05:25:03;;;;;;;22.83;14.50;;;1.20;99.90;;;;;;5014412;28;20298;-60
2022/03/05 05:27:29;;;;;;;24.00;13.93;;;1.00;99.90;;;;;;5014278;28;20641;-61
2022/03/05 05:29:54;;;;;;;22.73;13.90;;;1.00;99.90;;;;;;5014352;28;20175;-60
2022/03/05 05:32:20;;;;;;;23.80;14.23;;;1.00;99.90;;;;;;5014424;28;20187;-60
2022/03/05 05:34:46;;;;;;;21.50;14.20;;;1.00;99.90;;;;;;5014656;28;20259;-61
2022/03/05 05:37:11;;;;;;;21.70;14.83;;;0.90;99.90;;;;;;5014306;28;20537;-60
2022/03/05 05:39:37;;;;;;;23.90;14.33;;;0.80;99.90;;;;;;5014239;28;20537;-60
2022/03/05 05:42:04;;;;;;;22.53;14.63;;;0.80;99.90;;;;;;5014379;28;20268;-61
2022/03/05 05:44:30;;;;;;;22.70;14.23;;;0.80;99.90;;;;;;5014058;28;20602;-60
2022/03/05 05:46:55;;;;;;;21.03;14.07;;;0.90;99.90;;;;;;5013881;28;20257;-61
2022/03/05 05:49:21;;;;;;;21.80;14.30;;;0.90;99.90;;;;;;5014182;28;20237;-60
2022/03/05 05:51:47;;;;;;;24.13;15.37;;;0.90;99.90;;;;;;5012484;28;20222;-60
2022/03/05 05:54:13;;;;;;;22.37;13.60;;;0.70;99.90;;;;;;5013992;28;20213;-60
2022/03/05 05:56:39;;;;;;;21.70;14.23;;;0.70;99.90;;;;;;5014064;28;20262;-61
2022/03/05 05:59:05;;;;;;;21.70;13.90;;;0.60;99.90;;;;;;5013813;28;20187;-60
2022/03/05 06:01:34;;;;;;;21.67;14.23;;;0.60;99.90;;;;;;5013785;28;20180;-60
2022/03/05 06:04:00;;;;;;;23.43;14.53;;;0.70;99.90;;;;;;5013911;28;20199;-60
2022/03/05 06:06:26;;;;;;;23.20;14.67;;;0.70;99.90;;;;;;5013810;28;20743;-60
2022/03/05 06:08:51;;;;;;;20.93;13.50;;;0.60;99.90;;;;;;5013782;28;20237;-60
2022/03/05 06:11:17;;;;;;;25.60;15.30;;;0.60;99.90;;;;;;5013663;28;20192;-60
2022/03/05 06:13:43;;;;;;;22.63;14.13;;;0.60;99.90;;;;;;5013642;28;20191;-60
2022/03/05 06:16:09;;;;;;;24.20;14.57;;;0.50;99.90;;;;;;5013831;28;20188;-60
2022/03/05 06:18:35;;;;;;;22.23;14.53;;;0.60;99.90;;;;;;5012553;28;20179;-60
2022/03/05 06:21:01;;;;;;;25.97;15.37;;;0.60;99.90;;;;;;5013352;28;20180;-59
2022/03/05 06:23:26;;;;;;;22.53;15.27;;;0.80;99.90;;;;;;5012023;28;20214;-59
2022/03/05 06:25:52;;;;;;;26.20;15.67;;;0.80;99.90;;;;;;5012117;28;20270;-59
2022/03/05 06:28:18;;;;;;;29.73;16.67;;;0.90;99.90;;;;;;5013369;28;20183;-60
2022/03/05 06:30:44;;;;;;;29.63;16.27;;;1.10;99.90;;;;;;5013335;28;20330;-59
2022/03/05 06:33:10;;;;;;;25.73;15.17;;;1.20;99.90;;;;;;5013442;28;20200;-59
2022/03/05 06:35:35;;;;;;;25.97;16.00;;;1.20;99.90;;;;;;5013339;28;20179;-59
2022/03/05 06:38:01;;;;;;;25.60;15.53;;;1.20;99.90;;;;;;5013231;28;20227;-59
2022/03/05 06:40:27;;;;;;;24.53;15.60;;;1.30;99.90;;;;;;5013246;28;20212;-59
2022/03/05 06:42:54;;;;;;;25.10;15.50;;;1.20;99.90;;;;;;5013243;28;20187;-59
2022/03/05 06:45:20;;;;;;;25.00;15.67;;;1.10;99.90;;;;;;5013101;28;20570;-59
2022/03/05 06:47:46;;;;;;;25.83;16.07;;;1.10;99.90;;;;;;5013421;28;20183;-59
2022/03/05 06:50:12;;;;;;;25.50;16.17;;;1.10;99.90;;;;;;5011953;28;20538;-59
2022/03/05 06:52:38;;;;;;;22.77;14.23;;;1.10;99.90;;;;;;5013094;28;20185;-60
2022/03/05 06:55:05;;;;;;;22.67;15.37;;;1.10;99.90;;;;;;5011931;28;20208;-60
2022/03/05 06:57:30;;;;;;;24.67;16.03;;;1.10;99.90;;;;;;4997160;28;20220;-60
2022/03/05 06:59:57;;;;;;;23.67;15.47;;;1.10;99.90;;;;;;4989930;28;20251;-60
2022/03/05 07:02:22;;;;;;;22.33;14.80;;;1.20;99.90;;;;;;4990640;28;20292;-59
2022/03/05 07:04:49;;;;;;;25.47;14.63;;;1.30;99.90;;;;;;4991354;28;20204;-59
2022/03/05 07:07:15;;;;;;;25.30;16.60;;;1.20;99.90;;;;;;4991900;28;20226;-59
2022/03/05 07:09:41;;;;;;;23.13;15.83;;;1.30;99.90;;;;;;4992975;28;20197;-59
2022/03/05 07:12:09;;;;;;;22.00;15.63;;;1.30;99.90;;;;;;4993258;28;20203;-59
2022/03/05 07:14:35;;;;;;;25.70;15.90;;;1.40;99.90;;;;;;4993267;28;20182;-59
2022/03/05 07:17:01;;;;;;;24.60;16.87;;;1.50;99.90;;;;;;4993822;28;20195;-59
2022/03/05 07:19:27;;;;;;;28.23;16.13;;;1.50;99.90;;;;;;4993468;28;20204;-59
2022/03/05 07:21:52;;;;;;;25.67;16.20;;;1.50;99.90;;;;;;4993553;28;20185;-59
2022/03/05 07:24:19;;;;;;;23.07;15.73;;;1.60;99.90;;;;;;4993352;28;20184;-60
2022/03/05 07:26:44;;;;;;;24.50;16.07;;;1.70;99.90;;;;;;4993278;28;20219;-59
2022/03/05 07:29:13;;;;;;;23.63;15.63;;;1.70;99.90;;;;;;4993095;28;20204;-59
2022/03/05 07:31:39;;;;;;;26.30;16.20;;;1.80;99.90;;;;;;4993484;28;20185;-59
2022/03/05 07:34:05;;;;;;;25.27;15.43;;;1.80;99.90;;;;;;4993211;28;20231;-60
2022/03/05 07:36:30;;;;;;;24.57;16.50;;;1.90;99.90;;;;;;4996584;28;20188;-59
2022/03/05 07:38:56;;;;;;;23.30;15.40;;;1.90;99.90;;;;;;4995660;28;20218;-60
2022/03/05 07:41:22;;;;;;;24.20;14.87;;;2.10;99.90;;;;;;4996571;28;20240;-60
2022/03/05 07:43:48;;;;;;;24.37;16.17;;;2.20;99.90;;;;;;4996645;28;20185;-59
2022/03/05 07:46:14;;;;;;;22.67;15.23;;;2.20;99.90;;;;;;4996629;28;20228;-59
2022/03/05 07:48:39;;;;;;;22.73;15.60;;;2.40;99.90;;;;;;4996524;28;20192;-59
2022/03/05 07:51:05;;;;;;;23.40;16.73;;;2.30;99.90;;;;;;4996759;28;20631;-59
2022/03/05 07:53:34;;;;;;;23.77;16.23;;;2.50;99.90;;;;;;4996568;28;20227;-60
2022/03/05 07:56:00;;;;;;;26.33;16.70;;;2.50;99.90;;;;;;4996424;28;20315;-60
2022/03/05 07:58:25;;;;;;;24.93;16.00;;;2.60;99.90;;;;;;4996329;28;20686;-60
2022/03/05 08:00:51;;;;;;;25.60;16.40;;;2.70;99.90;;;;;;4995267;28;20579;-59
2022/03/05 08:03:17;;;;;;;24.47;17.07;;;2.80;99.90;;;;;;4996531;28;20263;-59
2022/03/05 08:05:43;;;;;;;24.40;17.00;;;2.90;99.90;;;;;;4996271;28;20674;-61
2022/03/05 08:08:10;;;;;;;26.40;16.73;;;2.80;99.90;;;;;;4996243;28;20174;-60
2022/03/05 08:10:35;;;;;;;24.53;16.13;;;2.90;99.90;;;;;;4996364;28;20193;-59
2022/03/05 08:13:02;;;;;;;23.03;17.27;;;3.10;99.90;;;;;;4996178;28;20534;-60
2022/03/05 08:15:27;;;;;;;25.20;17.17;;;3.20;99.90;;;;;;4996173;28;20190;-60
2022/03/05 08:17:56;;;;;;;26.40;17.13;;;3.40;99.90;;;;;;4994688;28;20189;-60
2022/03/05 08:20:24;;;;;;;25.73;17.40;;;3.50;99.90;;;;;;4994805;28;20180;-60
2022/03/05 08:22:50;;;;;;;24.43;16.40;;;3.50;99.90;;;;;;4995921;28;20183;-60
2022/03/05 08:25:16;;;;;;;27.97;17.40;;;3.30;99.90;;;;;;4995228;28;20689;-59
2022/03/05 08:27:45;;;;;;;24.30;17.37;;;3.50;99.90;;;;;;4995366;28;20180;-60
2022/03/05 08:30:11;;;;;;;25.47;17.40;;;3.70;99.90;;;;;;4995903;28;20204;-60
2022/03/05 08:32:37;;;;;;;25.77;18.57;;;3.80;99.90;;;;;;4995795;28;20184;-60
2022/03/05 08:35:04;;;;;;;26.23;18.93;;;3.90;99.90;;;;;;4995757;28;20180;-60
2022/03/05 08:37:30;;;;;;;25.47;18.63;;;3.90;99.90;;;;;;4995665;28;20183;-59
2022/03/05 08:39:55;;;;;;;27.97;17.90;;;4.00;99.90;;;;;;4995429;28;20184;-60
2022/03/05 08:42:22;;;;;;;25.10;19.00;;;4.10;99.90;;;;;;4995500;28;20243;-59
2022/03/05 08:44:47;;;;;;;28.53;19.33;;;4.30;99.90;;;;;;4995652;28;20672;-60
2022/03/05 08:47:13;;;;;;;28.33;20.17;;;4.40;99.90;;;;;;4995325;28;20216;-58
2022/03/05 08:49:39;;;;;;;28.83;19.53;;;4.40;99.90;;;;;;4995754;28;20282;-61
2022/03/05 08:52:08;;;;;;;27.87;20.00;;;4.50;99.90;;;;;;4995376;28;20630;-61
2022/03/05 08:54:37;;;;;;;25.67;19.17;;;4.40;99.90;;;;;;4995096;28;20195;-59
2022/03/05 08:57:06;;;;;;;24.90;18.77;;;4.50;99.90;;;;;;4995246;28;20664;-59
2022/03/05 08:59:32;;;;;;;26.67;19.07;;;4.60;99.90;;;;;;4994919;28;20184;-58
2022/03/05 09:01:57;;;;;;;28.70;19.73;;;4.50;99.90;;;;;;4995325;28;20177;-59
2022/03/05 09:04:23;;;;;;;27.07;18.77;;;4.70;99.90;;;;;;4995216;28;20540;-61
2022/03/05 09:06:49;;;;;;;32.93;23.87;;;4.70;99.90;;;;;;4994948;28;20216;-59
2022/03/05 09:09:14;;;;;;;27.83;20.60;;;4.80;99.90;;;;;;4994821;28;20201;-58
2022/03/05 09:11:40;;;;;;;28.63;20.23;;;4.90;99.90;;;;;;4995453;28;20224;-60
2022/03/05 09:14:07;;;;;;;27.23;21.17;;;5.10;99.90;;;;;;4995090;28;20228;-59
2022/03/05 09:16:37;;;;;;;26.53;20.13;;;5.20;99.90;;;;;;4994994;28;20192;-59
2022/03/05 09:19:04;;;;;;;27.02;20.13;;;5.30;99.90;;;;;;4994853;28;20608;-59
2022/03/05 09:21:30;;;;;;;25.27;19.27;;;5.50;99.90;;;;;;4994811;28;20183;-59
2022/03/05 09:23:56;;;;;;;27.17;19.30;;;5.70;99.90;;;;;;4995017;28;20181;-60
2022/03/05 09:26:21;;;;;;;25.85;19.50;;;5.60;99.90;;;;;;4994598;28;20240;-59
2022/03/05 09:28:48;;;;;;;26.63;19.98;;;5.80;99.90;;;;;;4995092;28;20181;-59
2022/03/05 09:31:13;;;;;;;27.92;20.17;;;5.70;99.90;;;;;;4993465;28;20562;-59
2022/03/05 09:33:39;;;;;;;25.73;19.48;;;5.80;99.90;;;;;;4994649;28;20199;-59
2022/03/05 09:36:05;;;;;;;27.00;20.27;;;6.00;99.90;;;;;;4994553;28;20642;-59
2022/03/05 09:38:30;;;;;;;27.23;19.23;;;6.30;99.90;;;;;;4994435;28;20180;-58
2022/03/05 09:40:57;;;;;;;27.35;20.38;;;6.50;99.90;;;;;;4994667;28;20205;-59
2022/03/05 09:43:23;;;;;;;26.55;19.55;;;6.70;99.90;;;;;;4994690;28;20178;-59
2022/03/05 09:45:49;;;;;;;26.85;20.05;;;6.90;99.90;;;;;;4994484;28;20235;-59
2022/03/05 09:48:16;;;;;;;24.90;20.17;;;6.90;99.90;;;;;;4994398;28;20188;-58
2022/03/05 09:50:42;;;;;;;23.95;19.35;;;7.20;99.90;;;;;;4994106;28;20173;-59
2022/03/05 09:53:12;;;;;;;27.27;21.15;;;7.40;99.90;;;;;;4993513;28;20585;-59
2022/03/05 09:55:38;;;;;;;25.30;20.13;;;7.50;99.90;;;;;;4994433;28;20200;-59
2022/03/05 09:58:03;;;;;;;27.17;20.70;;;7.60;99.90;;;;;;4993783;28;20645;-58
2022/03/05 10:00:30;;;;;;;29.35;21.02;;;7.80;99.90;;;;;;4994189;28;20184;-58
2022/03/05 10:02:56;;;;;;;27.02;20.15;;;7.70;99.90;;;;;;4994290;28;20206;-58
2022/03/05 10:05:27;;;;;;;28.33;20.25;;;7.60;99.90;;;;;;4993910;28;20299;-59
2022/03/05 10:08:15;;;;;;;25.58;19.85;;;7.40;99.90;;;;;;4977069;28;20192;-58
2022/03/05 10:10:46;;;;;;;26.58;20.52;;;7.40;99.90;;;;;;4993998;28;20195;-58
2022/03/05 10:13:21;;;;;;;25.88;20.42;;;7.40;99.90;;;;;;4994549;28;20173;-59
2022/03/05 10:15:48;;;;;;;32.53;23.35;;;7.30;99.90;;;;;;4992667;28;20653;-59
2022/03/05 10:18:14;;;;;;;35.20;21.88;;;7.50;99.90;;;;;;4993719;28;20272;-58
2022/03/05 10:20:50;;;;;;;26.88;22.08;;;7.70;99.90;;;;;;4994030;28;20215;-59
2022/03/05 10:23:18;;;;;;;28.23;20.88;;;7.90;99.90;;;;;;4993921;28;20704;-58
2022/03/05 10:25:50;;;;;;;26.25;19.83;;;8.10;99.90;;;;;;4993828;28;20367;-58
2022/03/05 10:28:27;;;;;;;27.10;20.02;;;8.10;99.90;;;;;;4993700;28;20642;-58
2022/03/05 10:30:58;;;;;;;25.75;19.38;;;8.00;99.90;;;;;;4994013;28;20646;-59
2022/03/05 10:33:41;;;;;;;25.20;20.77;;;8.10;99.90;;;;;;4993870;28;20181;-59
2022/03/05 10:36:18;;;;;;;27.73;20.95;;;8.40;99.90;;;;;;4993818;28;20177;-59
2022/03/05 10:38:45;;;;;;;26.83;21.08;;;8.50;99.90;;;;;;4993327;28;20657;-58
2022/03/05 10:41:13;;;;;;;27.83;20.92;;;8.40;99.90;;;;;;4993718;28;20184;-59
2022/03/05 10:43:39;;;;;;;25.50;21.05;;;8.60;99.90;;;;;;4992597;28;20165;-59
2022/03/05 10:46:05;;;;;;;27.02;20.63;;;8.50;99.90;;;;;;4993575;28;20686;-59
2022/03/05 10:48:33;;;;;;;27.75;21.30;;;8.70;99.90;;;;;;4992287;28;20224;-58
2022/03/05 10:51:05;;;;;;;28.60;21.63;;;8.70;99.90;;;;;;4992947;28;20272;-57
2022/03/05 10:53:44;;;;;;;25.88;20.65;;;8.90;99.90;;;;;;5003494;28;20169;-57
2022/03/05 10:56:28;;;;;;;24.23;20.25;;;8.70;97.50;;;;;;5013343;28;20173;-56
2022/03/05 10:59:01;;;;;;;28.85;21.00;;;8.80;98.40;;;;;;5013381;28;20171;-58
2022/03/05 11:01:27;;;;;;;27.27;20.65;;;9.10;98.50;;;;;;5013066;28;20569;-58
2022/03/05 11:03:54;;;;;;;27.95;21.38;;;9.10;98.10;;;;;;5013371;28;20239;-58
2022/03/05 11:06:21;;;;;;;27.67;20.33;;;9.00;97.50;;;;;;5013174;28;20565;-57
2022/03/05 11:08:48;;;;;;;25.40;20.42;;;9.20;97.60;;;;;;5013068;28;20182;-58
2022/03/05 11:11:16;;;;;;;26.60;20.35;;;9.20;99.20;;;;;;5016053;28;20192;-60
2022/03/05 11:13:42;;;;;;;24.55;19.77;;;9.30;98.60;;;;;;5016860;28;20196;-59
2022/03/05 11:16:09;;;;;;;25.60;19.17;;;9.20;97.50;;;;;;5016696;28;20176;-59
2022/03/05 11:18:36;;;;;;;26.58;19.63;;;9.20;96.90;;;;;;5016835;28;20181;-59
2022/03/05 11:21:03;;;;;;;26.73;19.38;;;9.40;97.80;;;;;;5015566;28;20203;-58
2022/03/05 11:23:29;;;;;;;24.15;19.70;;;9.40;96.50;;;;;;5016785;28;20173;-59
2022/03/05 11:25:55;;;;;;;24.67;18.95;;;9.50;94.60;;;;;;5016620;28;20700;-59
2022/03/05 11:28:24;;;;;;;28.58;20.48;;;9.70;95.50;;;;;;5016438;28;20177;-57
2022/03/05 11:30:55;;;;;;;24.85;19.60;;;9.70;96.10;;;;;;5016500;28;20212;-56
2022/03/05 11:33:33;;;;;;;26.38;18.52;;;9.60;94.20;;;;;;5016635;28;20175;-59
2022/03/05 11:36:45;;;;;;;24.75;19.00;;;9.50;94.70;;;;;;5016571;28;20176;-57
2022/03/05 11:39:18;;;;;;;28.60;19.92;;;9.60;95.30;;;;;;5014075;28;20196;-57
2022/03/05 11:42:02;;;;;;;24.45;18.38;;;9.70;95.10;;;;;;5016169;28;20637;-57
2022/03/05 11:44:48;;;;;;;22.67;18.42;;;9.70;93.50;;;;;;5016355;28;20241;-57
2022/03/05 11:47:19;;;;;;;24.10;18.80;;;9.80;90.90;;;;;;5015440;28;20243;-57
2022/03/05 11:50:00;;;;;;;24.33;18.98;;;10.00;92.10;;;;;;5016009;28;20530;-57
2022/03/05 11:52:41;;;;;;;25.33;19.30;;;10.00;92.60;;;;;;5015954;28;20590;-57
2022/03/05 11:55:20;;;;;;;25.98;19.45;;;10.00;91.60;;;;;;5015951;28;20262;-58
2022/03/05 11:57:51;;;;;;;22.85;18.08;;;10.10;94.70;;;;;;5015772;28;20503;-58
2022/03/05 12:00:25;;;;;;;24.90;20.30;;;10.20;92.00;;;;;;5015752;28;20206;-57
2022/03/05 12:02:55;;;;;;;21.13;16.77;;;10.10;93.30;;;;;;5015960;28;20173;-57
2022/03/05 12:05:36;;;;;;;23.17;17.77;;;10.30;81.90;;;;;;5015785;28;20240;-57
2022/03/05 12:08:03;;;;;;;22.63;16.95;;;10.20;90.00;;;;;;5015833;28;20214;-57
2022/03/05 12:10:29;;;;;;;26.10;18.25;;;10.30;85.60;;;;;;5016090;28;20283;-57
2022/03/05 12:12:54;;;;;;;24.63;17.98;;;10.30;84.90;;;;;;5015887;28;20227;-58
2022/03/05 12:15:47;;;;;;;23.42;16.38;;;10.40;78.70;;;;;;5015670;28;20653;-57
2022/03/05 12:18:15;;;;;;;22.08;16.73;;;10.30;79.30;;;;;;5015455;28;20196;-58
2022/03/05 12:20:44;;;;;;;22.95;17.27;;;10.50;74.20;;;;;;5015031;28;20188;-57
2022/03/05 12:23:18;;;;;;;26.35;18.20;;;10.50;77.70;;;;;;5015510;28;20217;-58
2022/03/05 12:25:46;;;;;;;23.13;17.38;;;10.70;78.40;;;;;;5015190;28;20213;-58
2022/03/05 12:28:15;;;;;;;23.42;16.27;;;10.90;76.90;;;;;;5015399;28;20180;-57
2022/03/05 12:30:41;;;;;;;20.25;16.13;;;10.90;77.70;;;;;;5015391;28;20697;-57
2022/03/05 12:33:15;;;;;;;20.40;15.93;;;10.80;71.20;;;;;;5015065;28;20195;-58
2022/03/05 12:35:43;;;;;;;21.70;16.55;;;10.80;68.20;;;;;;5015551;28;20204;-58
2022/03/05 12:38:10;;;;;;;23.15;15.77;;;11.00;69.40;;;;;;5015356;28;20171;-58